sensor_id;sensor_type;location;lat;lon;timestamp;P1;durP1;ratioP1;P2;durP2;ratioP2
14001;SDS011;7076;51.280;12.584;2023-05-29T00:03:28;7.22;;;6.13;;
14001;SDS011;7076;51.280;12.584;2023-05-29T00:08:34;8.93;;;6.45;;
14001;SDS011;7076;51.280;12.584;2023-05-29T00:13:37;8.50;;;5.28;;
14001;SDS011;7076;51.280;12.584;2023-05-29T00:18:41;9.32;;;5.13;;
14001;SDS011;7076;51.280;12.584;2023-05-29T00:23:47;5.93;;;5.13;;
14001;SDS011;7076;51.280;12.584;2023-05-29T00:28:50;11.48;;;4.75;;
14001;SDS011;7076;51.280;12.584;2023-05-29T00:33:54;7.53;;;5.95;;
14001;SDS011;7076;51.280;12.584;2023-05-29T00:38:57;6.28;;;4.93;;
14001;SDS011;7076;51.280;12.584;2023-05-29T00:43:59;5.75;;;5.03;;
14001;SDS011;7076;51.280;12.584;2023-05-29T00:49:04;5.93;;;4.68;;
14001;SDS011;7076;51.280;12.584;2023-05-29T00:54:08;8.60;;;5.90;;
14001;SDS011;7076;51.280;12.584;2023-05-29T00:59:14;8.82;;;6.43;;
14001;SDS011;7076;51.280;12.584;2023-05-29T01:04:21;8.05;;;6.03;;
14001;SDS011;7076;51.280;12.584;2023-05-29T01:09:25;6.53;;;5.35;;
14001;SDS011;7076;51.280;12.584;2023-05-29T01:14:29;8.05;;;5.22;;
14001;SDS011;7076;51.280;12.584;2023-05-29T01:19:44;6.75;;;5.00;;
14001;SDS011;7076;51.280;12.584;2023-05-29T01:24:55;7.75;;;5.10;;
14001;SDS011;7076;51.280;12.584;2023-05-29T01:30:05;6.30;;;5.25;;
14001;SDS011;7076;51.280;12.584;2023-05-29T01:35:08;7.78;;;5.22;;
14001;SDS011;7076;51.280;12.584;2023-05-29T01:40:12;7.80;;;5.20;;
14001;SDS011;7076;51.280;12.584;2023-05-29T01:45:16;6.07;;;5.07;;
14001;SDS011;7076;51.280;12.584;2023-05-29T01:50:20;6.20;;;4.93;;
14001;SDS011;7076;51.280;12.584;2023-05-29T01:55:25;6.40;;;4.57;;
14001;SDS011;7076;51.280;12.584;2023-05-29T02:00:29;8.00;;;4.93;;
14001;SDS011;7076;51.280;12.584;2023-05-29T02:05:32;7.57;;;4.90;;
14001;SDS011;7076;51.280;12.584;2023-05-29T02:10:35;6.22;;;4.75;;
14001;SDS011;7076;51.280;12.584;2023-05-29T02:15:39;7.88;;;4.97;;
14001;SDS011;7076;51.280;12.584;2023-05-29T02:20:43;5.70;;;3.97;;
14001;SDS011;7076;51.280;12.584;2023-05-29T02:25:54;6.47;;;4.63;;
14001;SDS011;7076;51.280;12.584;2023-05-29T02:30:59;5.20;;;3.95;;
14001;SDS011;7076;51.280;12.584;2023-05-29T02:36:01;7.72;;;4.53;;
14001;SDS011;7076;51.280;12.584;2023-05-29T02:41:04;4.90;;;4.13;;
14001;SDS011;7076;51.280;12.584;2023-05-29T02:46:09;11.40;;;4.85;;
14001;SDS011;7076;51.280;12.584;2023-05-29T02:51:12;4.28;;;3.88;;
14001;SDS011;7076;51.280;12.584;2023-05-29T02:56:14;4.35;;;3.67;;
14001;SDS011;7076;51.280;12.584;2023-05-29T03:01:19;6.15;;;4.63;;
14001;SDS011;7076;51.280;12.584;2023-05-29T03:06:22;6.70;;;4.70;;
14001;SDS011;7076;51.280;12.584;2023-05-29T03:11:25;7.70;;;4.72;;
14001;SDS011;7076;51.280;12.584;2023-05-29T03:16:31;5.38;;;4.50;;
14001;SDS011;7076;51.280;12.584;2023-05-29T03:21:34;6.15;;;4.40;;
14001;SDS011;7076;51.280;12.584;2023-05-29T03:26:38;5.38;;;3.90;;
14001;SDS011;7076;51.280;12.584;2023-05-29T03:31:42;5.25;;;4.25;;
14001;SDS011;7076;51.280;12.584;2023-05-29T03:36:49;5.93;;;4.45;;
14001;SDS011;7076;51.280;12.584;2023-05-29T03:41:52;5.60;;;3.88;;
14001;SDS011;7076;51.280;12.584;2023-05-29T03:46:57;4.68;;;3.70;;
14001;SDS011;7076;51.280;12.584;2023-05-29T03:52:00;5.95;;;4.45;;
14001;SDS011;7076;51.280;12.584;2023-05-29T03:57:03;6.43;;;4.43;;
14001;SDS011;7076;51.280;12.584;2023-05-29T04:02:09;4.45;;;3.63;;
14001;SDS011;7076;51.280;12.584;2023-05-29T04:07:16;5.43;;;3.67;;
14001;SDS011;7076;51.280;12.584;2023-05-29T04:12:19;5.10;;;3.58;;
14001;SDS011;7076;51.280;12.584;2023-05-29T04:17:24;5.75;;;3.78;;
14001;SDS011;7076;51.280;12.584;2023-05-29T04:22:26;4.75;;;3.88;;
14001;SDS011;7076;51.280;12.584;2023-05-29T04:27:29;8.10;;;3.90;;
14001;SDS011;7076;51.280;12.584;2023-05-29T04:32:35;7.30;;;4.47;;
14001;SDS011;7076;51.280;12.584;2023-05-29T04:37:38;4.80;;;4.18;;
14001;SDS011;7076;51.280;12.584;2023-05-29T04:42:42;7.43;;;4.53;;
14001;SDS011;7076;51.280;12.584;2023-05-29T04:47:49;6.75;;;5.15;;
14001;SDS011;7076;51.280;12.584;2023-05-29T04:52:54;4.88;;;4.30;;
14001;SDS011;7076;51.280;12.584;2023-05-29T04:57:57;5.45;;;4.68;;
14001;SDS011;7076;51.280;12.584;2023-05-29T05:03:03;5.80;;;4.05;;
14001;SDS011;7076;51.280;12.584;2023-05-29T05:08:07;4.72;;;3.85;;
14001;SDS011;7076;51.280;12.584;2023-05-29T05:13:10;4.68;;;3.67;;
14001;SDS011;7076;51.280;12.584;2023-05-29T05:18:16;5.28;;;3.88;;
14001;SDS011;7076;51.280;12.584;2023-05-29T05:23:26;4.50;;;3.88;;
14001;SDS011;7076;51.280;12.584;2023-05-29T05:28:28;6.38;;;3.40;;
14001;SDS011;7076;51.280;12.584;2023-05-29T05:33:33;4.68;;;3.72;;
14001;SDS011;7076;51.280;12.584;2023-05-29T05:38:37;5.90;;;3.95;;
14001;SDS011;7076;51.280;12.584;2023-05-29T05:43:39;5.15;;;3.90;;
14001;SDS011;7076;51.280;12.584;2023-05-29T05:48:50;7.22;;;4.13;;
14001;SDS011;7076;51.280;12.584;2023-05-29T05:53:53;5.45;;;3.40;;
14001;SDS011;7076;51.280;12.584;2023-05-29T05:58:56;4.05;;;3.65;;
14001;SDS011;7076;51.280;12.584;2023-05-29T06:04:00;4.70;;;3.65;;
14001;SDS011;7076;51.280;12.584;2023-05-29T06:09:06;6.75;;;3.90;;
14001;SDS011;7076;51.280;12.584;2023-05-29T06:14:09;5.32;;;4.45;;
14001;SDS011;7076;51.280;12.584;2023-05-29T06:19:13;5.65;;;4.13;;
14001;SDS011;7076;51.280;12.584;2023-05-29T06:24:42;4.43;;;4.00;;
14001;SDS011;7076;51.280;12.584;2023-05-29T06:29:45;5.05;;;3.95;;
14001;SDS011;7076;51.280;12.584;2023-05-29T06:34:49;5.78;;;4.13;;
14001;SDS011;7076;51.280;12.584;2023-05-29T06:39:52;6.43;;;3.85;;
14001;SDS011;7076;51.280;12.584;2023-05-29T06:44:55;5.28;;;3.78;;
14001;SDS011;7076;51.280;12.584;2023-05-29T06:50:00;8.77;;;3.47;;
14001;SDS011;7076;51.280;12.584;2023-05-29T06:55:03;3.42;;;2.90;;
14001;SDS011;7076;51.280;12.584;2023-05-29T07:00:08;4.88;;;3.30;;
14001;SDS011;7076;51.280;12.584;2023-05-29T07:05:18;3.83;;;2.95;;
14001;SDS011;7076;51.280;12.584;2023-05-29T07:10:21;6.68;;;3.78;;
14001;SDS011;7076;51.280;12.584;2023-05-29T07:15:24;5.88;;;2.63;;
14001;SDS011;7076;51.280;12.584;2023-05-29T07:20:28;3.30;;;2.92;;
14001;SDS011;7076;51.280;12.584;2023-05-29T07:25:32;5.32;;;3.05;;
14001;SDS011;7076;51.280;12.584;2023-05-29T07:30:35;6.20;;;3.10;;
14001;SDS011;7076;51.280;12.584;2023-05-29T07:35:40;8.82;;;3.50;;
14001;SDS011;7076;51.280;12.584;2023-05-29T07:40:44;8.05;;;3.40;;
14001;SDS011;7076;51.280;12.584;2023-05-29T07:46:04;5.97;;;3.38;;
14001;SDS011;7076;51.280;12.584;2023-05-29T07:51:11;5.55;;;3.38;;
14001;SDS011;7076;51.280;12.584;2023-05-29T07:56:19;4.50;;;2.83;;
14001;SDS011;7076;51.280;12.584;2023-05-29T08:01:22;6.47;;;3.00;;
14001;SDS011;7076;51.280;12.584;2023-05-29T08:06:27;3.85;;;2.75;;
14001;SDS011;7076;51.280;12.584;2023-05-29T08:11:31;4.72;;;3.05;;
14001;SDS011;7076;51.280;12.584;2023-05-29T08:16:34;8.15;;;3.25;;
14001;SDS011;7076;51.280;12.584;2023-05-29T08:21:39;4.40;;;2.88;;
14001;SDS011;7076;51.280;12.584;2023-05-29T08:26:42;5.32;;;2.60;;
14001;SDS011;7076;51.280;12.584;2023-05-29T08:31:45;5.85;;;2.88;;
14001;SDS011;7076;51.280;12.584;2023-05-29T08:36:49;7.10;;;2.83;;
14001;SDS011;7076;51.280;12.584;2023-05-29T08:41:56;9.02;;;2.78;;
14001;SDS011;7076;51.280;12.584;2023-05-29T08:47:03;4.07;;;2.53;;
14001;SDS011;7076;51.280;12.584;2023-05-29T08:52:11;4.32;;;2.60;;
14001;SDS011;7076;51.280;12.584;2023-05-29T08:57:18;3.30;;;2.25;;
14001;SDS011;7076;51.280;12.584;2023-05-29T09:02:21;5.00;;;2.40;;
14001;SDS011;7076;51.280;12.584;2023-05-29T09:07:26;6.43;;;2.45;;
14001;SDS011;7076;51.280;12.584;2023-05-29T09:12:29;3.75;;;2.38;;
14001;SDS011;7076;51.280;12.584;2023-05-29T09:17:33;7.18;;;2.60;;
14001;SDS011;7076;51.280;12.584;2023-05-29T09:22:38;4.25;;;2.20;;
14001;SDS011;7076;51.280;12.584;2023-05-29T09:27:40;3.75;;;2.22;;
14001;SDS011;7076;51.280;12.584;2023-05-29T09:32:43;4.25;;;2.53;;
14001;SDS011;7076;51.280;12.584;2023-05-29T09:37:48;5.63;;;2.60;;
14001;SDS011;7076;51.280;12.584;2023-05-29T09:43:11;3.35;;;2.28;;
14001;SDS011;7076;51.280;12.584;2023-05-29T09:48:17;4.13;;;2.50;;
14001;SDS011;7076;51.280;12.584;2023-05-29T09:53:22;4.35;;;2.17;;
14001;SDS011;7076;51.280;12.584;2023-05-29T09:58:26;3.63;;;2.40;;
14001;SDS011;7076;51.280;12.584;2023-05-29T10:03:29;4.93;;;2.42;;
14001;SDS011;7076;51.280;12.584;2023-05-29T10:08:38;3.97;;;2.22;;
14001;SDS011;7076;51.280;12.584;2023-05-29T10:13:44;3.65;;;2.38;;
14001;SDS011;7076;51.280;12.584;2023-05-29T10:18:53;5.05;;;2.78;;
14001;SDS011;7076;51.280;12.584;2023-05-29T10:23:58;4.45;;;2.55;;
14001;SDS011;7076;51.280;12.584;2023-05-29T10:29:03;7.30;;;2.50;;
14001;SDS011;7076;51.280;12.584;2023-05-29T10:34:29;5.43;;;2.42;;
14001;SDS011;7076;51.280;12.584;2023-05-29T10:39:36;3.72;;;2.40;;
14001;SDS011;7076;51.280;12.584;2023-05-29T10:44:39;4.82;;;2.05;;
14001;SDS011;7076;51.280;12.584;2023-05-29T10:49:48;5.00;;;2.22;;
14001;SDS011;7076;51.280;12.584;2023-05-29T10:54:54;4.60;;;2.03;;
14001;SDS011;7076;51.280;12.584;2023-05-29T10:59:58;8.98;;;2.67;;
14001;SDS011;7076;51.280;12.584;2023-05-29T11:05:05;5.38;;;2.65;;
14001;SDS011;7076;51.280;12.584;2023-05-29T11:10:43;3.33;;;1.85;;
14001;SDS011;7076;51.280;12.584;2023-05-29T11:15:47;4.18;;;2.60;;
14001;SDS011;7076;51.280;12.584;2023-05-29T11:20:50;8.32;;;2.55;;
14001;SDS011;7076;51.280;12.584;2023-05-29T11:25:59;3.35;;;2.00;;
14001;SDS011;7076;51.280;12.584;2023-05-29T11:31:04;4.70;;;2.00;;
14001;SDS011;7076;51.280;12.584;2023-05-29T11:36:11;6.95;;;2.20;;
14001;SDS011;7076;51.280;12.584;2023-05-29T11:41:15;4.13;;;2.05;;
14001;SDS011;7076;51.280;12.584;2023-05-29T11:46:19;3.10;;;2.00;;
14001;SDS011;7076;51.280;12.584;2023-05-29T11:51:23;2.60;;;2.10;;
14001;SDS011;7076;51.280;12.584;2023-05-29T11:56:28;3.70;;;1.80;;
14001;SDS011;7076;51.280;12.584;2023-05-29T12:01:34;2.35;;;1.95;;
14001;SDS011;7076;51.280;12.584;2023-05-29T12:06:37;4.28;;;2.17;;
14001;SDS011;7076;51.280;12.584;2023-05-29T12:11:41;4.45;;;2.30;;
14001;SDS011;7076;51.280;12.584;2023-05-29T12:16:44;3.42;;;1.90;;
14001;SDS011;7076;51.280;12.584;2023-05-29T12:21:47;2.75;;;2.10;;
14001;SDS011;7076;51.280;12.584;2023-05-29T12:26:51;2.75;;;1.80;;
14001;SDS011;7076;51.280;12.584;2023-05-29T12:31:57;6.20;;;2.35;;
14001;SDS011;7076;51.280;12.584;2023-05-29T12:37:03;3.35;;;2.25;;
14001;SDS011;7076;51.280;12.584;2023-05-29T12:42:13;3.53;;;2.17;;
14001;SDS011;7076;51.280;12.584;2023-05-29T12:47:22;3.50;;;2.22;;
14001;SDS011;7076;51.280;12.584;2023-05-29T12:52:26;2.40;;;2.10;;
14001;SDS011;7076;51.280;12.584;2023-05-29T12:57:30;4.40;;;2.38;;
14001;SDS011;7076;51.280;12.584;2023-05-29T13:02:33;3.70;;;1.75;;
14001;SDS011;7076;51.280;12.584;2023-05-29T13:07:36;3.38;;;2.10;;
14001;SDS011;7076;51.280;12.584;2023-05-29T13:12:40;3.72;;;1.85;;
14001;SDS011;7076;51.280;12.584;2023-05-29T13:17:43;2.83;;;2.00;;
14001;SDS011;7076;51.280;12.584;2023-05-29T13:22:47;4.10;;;2.00;;
14001;SDS011;7076;51.280;12.584;2023-05-29T13:27:51;4.65;;;2.45;;
14001;SDS011;7076;51.280;12.584;2023-05-29T13:32:54;3.42;;;2.22;;
14001;SDS011;7076;51.280;12.584;2023-05-29T13:37:57;3.15;;;2.35;;
14001;SDS011;7076;51.280;12.584;2023-05-29T13:43:02;3.90;;;2.03;;
14001;SDS011;7076;51.280;12.584;2023-05-29T13:48:04;3.90;;;2.10;;
14001;SDS011;7076;51.280;12.584;2023-05-29T13:53:07;4.32;;;1.90;;
14001;SDS011;7076;51.280;12.584;2023-05-29T13:58:12;5.35;;;2.33;;
14001;SDS011;7076;51.280;12.584;2023-05-29T14:03:15;3.75;;;2.28;;
14001;SDS011;7076;51.280;12.584;2023-05-29T14:08:19;4.10;;;2.40;;
14001;SDS011;7076;51.280;12.584;2023-05-29T14:13:23;3.15;;;2.00;;
14001;SDS011;7076;51.280;12.584;2023-05-29T14:18:26;3.45;;;2.22;;
14001;SDS011;7076;51.280;12.584;2023-05-29T14:23:29;4.70;;;2.20;;
14001;SDS011;7076;51.280;12.584;2023-05-29T14:28:33;2.45;;;2.03;;
14001;SDS011;7076;51.280;12.584;2023-05-29T14:33:36;3.35;;;1.90;;
14001;SDS011;7076;51.280;12.584;2023-05-29T14:38:39;2.70;;;1.98;;
14001;SDS011;7076;51.280;12.584;2023-05-29T14:43:44;2.50;;;1.95;;
14001;SDS011;7076;51.280;12.584;2023-05-29T14:48:46;3.33;;;1.70;;
14001;SDS011;7076;51.280;12.584;2023-05-29T14:53:50;3.10;;;1.90;;
14001;SDS011;7076;51.280;12.584;2023-05-29T14:58:54;4.50;;;1.98;;
14001;SDS011;7076;51.280;12.584;2023-05-29T15:03:57;2.13;;;1.92;;
14001;SDS011;7076;51.280;12.584;2023-05-29T15:09:03;2.30;;;1.90;;
14001;SDS011;7076;51.280;12.584;2023-05-29T15:14:07;4.22;;;2.10;;
14001;SDS011;7076;51.280;12.584;2023-05-29T15:19:10;2.13;;;1.65;;
14001;SDS011;7076;51.280;12.584;2023-05-29T15:24:13;4.25;;;1.70;;
14001;SDS011;7076;51.280;12.584;2023-05-29T15:29:17;2.15;;;1.65;;
14001;SDS011;7076;51.280;12.584;2023-05-29T15:34:22;3.00;;;2.00;;
14001;SDS011;7076;51.280;12.584;2023-05-29T15:39:25;2.28;;;1.70;;
14001;SDS011;7076;51.280;12.584;2023-05-29T15:44:29;2.65;;;1.70;;
14001;SDS011;7076;51.280;12.584;2023-05-29T15:49:32;2.15;;;1.77;;
14001;SDS011;7076;51.280;12.584;2023-05-29T15:54:35;3.15;;;2.10;;
14001;SDS011;7076;51.280;12.584;2023-05-29T15:59:39;2.75;;;1.80;;
14001;SDS011;7076;51.280;12.584;2023-05-29T16:04:42;2.45;;;2.22;;
14001;SDS011;7076;51.280;12.584;2023-05-29T16:09:59;3.90;;;2.75;;
14001;SDS011;7076;51.280;12.584;2023-05-29T16:15:04;2.75;;;2.35;;
14001;SDS011;7076;51.280;12.584;2023-05-29T16:20:08;2.63;;;2.03;;
14001;SDS011;7076;51.280;12.584;2023-05-29T16:25:11;3.47;;;2.53;;
14001;SDS011;7076;51.280;12.584;2023-05-29T16:30:16;3.25;;;2.17;;
14001;SDS011;7076;51.280;12.584;2023-05-29T16:35:19;4.63;;;2.17;;
14001;SDS011;7076;51.280;12.584;2023-05-29T16:40:22;4.38;;;2.42;;
14001;SDS011;7076;51.280;12.584;2023-05-29T16:45:27;4.30;;;2.03;;
14001;SDS011;7076;51.280;12.584;2023-05-29T16:50:30;3.85;;;2.10;;
14001;SDS011;7076;51.280;12.584;2023-05-29T16:55:33;2.35;;;1.95;;
14001;SDS011;7076;51.280;12.584;2023-05-29T17:00:37;3.03;;;2.00;;
14001;SDS011;7076;51.280;12.584;2023-05-29T17:05:40;4.50;;;1.92;;
14001;SDS011;7076;51.280;12.584;2023-05-29T17:10:46;5.13;;;2.30;;
14001;SDS011;7076;51.280;12.584;2023-05-29T17:15:51;6.15;;;2.20;;
14001;SDS011;7076;51.280;12.584;2023-05-29T17:20:54;3.92;;;2.33;;
14001;SDS011;7076;51.280;12.584;2023-05-29T17:25:57;4.03;;;1.88;;
14001;SDS011;7076;51.280;12.584;2023-05-29T17:31:02;3.75;;;2.10;;
14001;SDS011;7076;51.280;12.584;2023-05-29T17:36:06;2.60;;;2.10;;
14001;SDS011;7076;51.280;12.584;2023-05-29T17:41:09;3.65;;;2.83;;
14001;SDS011;7076;51.280;12.584;2023-05-29T17:46:14;2.40;;;1.90;;
14001;SDS011;7076;51.280;12.584;2023-05-29T17:51:20;2.47;;;1.95;;
14001;SDS011;7076;51.280;12.584;2023-05-29T17:56:25;4.68;;;2.30;;
14001;SDS011;7076;51.280;12.584;2023-05-29T18:01:35;5.95;;;2.17;;
14001;SDS011;7076;51.280;12.584;2023-05-29T18:06:47;3.60;;;2.03;;
14001;SDS011;7076;51.280;12.584;2023-05-29T18:11:50;2.63;;;2.00;;
14001;SDS011;7076;51.280;12.584;2023-05-29T18:16:56;4.35;;;2.20;;
14001;SDS011;7076;51.280;12.584;2023-05-29T18:22:00;2.78;;;1.95;;
14001;SDS011;7076;51.280;12.584;2023-05-29T18:27:03;3.88;;;1.73;;
14001;SDS011;7076;51.280;12.584;2023-05-29T18:32:09;3.00;;;1.90;;
14001;SDS011;7076;51.280;12.584;2023-05-29T18:37:12;3.17;;;2.50;;
14001;SDS011;7076;51.280;12.584;2023-05-29T18:42:16;2.38;;;1.88;;
14001;SDS011;7076;51.280;12.584;2023-05-29T18:47:21;2.85;;;1.92;;
14001;SDS011;7076;51.280;12.584;2023-05-29T18:52:24;3.85;;;1.83;;
14001;SDS011;7076;51.280;12.584;2023-05-29T18:57:28;3.92;;;1.70;;
14001;SDS011;7076;51.280;12.584;2023-05-29T19:02:35;2.67;;;2.13;;
14001;SDS011;7076;51.280;12.584;2023-05-29T19:07:38;4.07;;;1.83;;
14001;SDS011;7076;51.280;12.584;2023-05-29T19:12:41;2.58;;;1.90;;
14001;SDS011;7076;51.280;12.584;2023-05-29T19:17:45;3.53;;;1.90;;
14001;SDS011;7076;51.280;12.584;2023-05-29T19:22:49;3.80;;;1.85;;
14001;SDS011;7076;51.280;12.584;2023-05-29T19:27:53;4.95;;;1.98;;
14001;SDS011;7076;51.280;12.584;2023-05-29T19:32:57;2.33;;;1.80;;
14001;SDS011;7076;51.280;12.584;2023-05-29T19:38:01;5.25;;;1.80;;
14001;SDS011;7076;51.280;12.584;2023-05-29T19:43:04;4.10;;;1.90;;
14001;SDS011;7076;51.280;12.584;2023-05-29T19:48:08;2.53;;;1.92;;
14001;SDS011;7076;51.280;12.584;2023-05-29T19:53:11;5.25;;;2.13;;
14001;SDS011;7076;51.280;12.584;2023-05-29T19:58:16;3.72;;;1.80;;
14001;SDS011;7076;51.280;12.584;2023-05-29T20:03:20;4.15;;;1.73;;
14001;SDS011;7076;51.280;12.584;2023-05-29T20:08:23;1.73;;;1.52;;
14001;SDS011;7076;51.280;12.584;2023-05-29T20:13:26;3.90;;;1.88;;
14001;SDS011;7076;51.280;12.584;2023-05-29T20:18:31;3.42;;;1.80;;
14001;SDS011;7076;51.280;12.584;2023-05-29T20:23:34;2.55;;;1.65;;
14001;SDS011;7076;51.280;12.584;2023-05-29T20:28:37;3.72;;;1.67;;
14001;SDS011;7076;51.280;12.584;2023-05-29T20:33:42;3.20;;;1.50;;
14001;SDS011;7076;51.280;12.584;2023-05-29T20:38:45;6.57;;;2.38;;
14001;SDS011;7076;51.280;12.584;2023-05-29T20:43:48;2.20;;;1.83;;
14001;SDS011;7076;51.280;12.584;2023-05-29T20:48:53;3.75;;;2.00;;
14001;SDS011;7076;51.280;12.584;2023-05-29T20:53:56;4.63;;;2.00;;
14001;SDS011;7076;51.280;12.584;2023-05-29T20:58:59;4.32;;;2.10;;
14001;SDS011;7076;51.280;12.584;2023-05-29T21:04:04;3.55;;;2.00;;
14001;SDS011;7076;51.280;12.584;2023-05-29T21:09:07;3.15;;;1.95;;
14001;SDS011;7076;51.280;12.584;2023-05-29T21:14:10;6.20;;;2.20;;
14001;SDS011;7076;51.280;12.584;2023-05-29T21:19:15;4.32;;;2.00;;
14001;SDS011;7076;51.280;12.584;2023-05-29T21:24:18;2.88;;;1.50;;
14001;SDS011;7076;51.280;12.584;2023-05-29T21:29:21;3.33;;;1.60;;
14001;SDS011;7076;51.280;12.584;2023-05-29T21:34:26;2.78;;;1.80;;
14001;SDS011;7076;51.280;12.584;2023-05-29T21:39:30;6.47;;;1.80;;
14001;SDS011;7076;51.280;12.584;2023-05-29T21:44:34;2.95;;;1.63;;
14001;SDS011;7076;51.280;12.584;2023-05-29T21:49:39;3.47;;;1.70;;
14001;SDS011;7076;51.280;12.584;2023-05-29T21:54:41;4.57;;;1.67;;
14001;SDS011;7076;51.280;12.584;2023-05-29T21:59:44;3.78;;;1.88;;
14001;SDS011;7076;51.280;12.584;2023-05-29T22:04:49;5.07;;;2.00;;
14001;SDS011;7076;51.280;12.584;2023-05-29T22:09:52;2.47;;;1.50;;
14001;SDS011;7076;51.280;12.584;2023-05-29T22:14:55;5.65;;;1.63;;
14001;SDS011;7076;51.280;12.584;2023-05-29T22:19:59;3.72;;;1.65;;
14001;SDS011;7076;51.280;12.584;2023-05-29T22:25:07;4.07;;;1.90;;
14001;SDS011;7076;51.280;12.584;2023-05-29T22:30:11;5.15;;;1.60;;
14001;SDS011;7076;51.280;12.584;2023-05-29T22:35:15;3.20;;;1.55;;
14001;SDS011;7076;51.280;12.584;2023-05-29T22:40:18;2.92;;;1.50;;
14001;SDS011;7076;51.280;12.584;2023-05-29T22:45:21;3.83;;;1.50;;
14001;SDS011;7076;51.280;12.584;2023-05-29T22:50:26;2.88;;;1.70;;
14001;SDS011;7076;51.280;12.584;2023-05-29T22:55:29;2.70;;;1.48;;
14001;SDS011;7076;51.280;12.584;2023-05-29T23:00:32;4.40;;;1.55;;
14001;SDS011;7076;51.280;12.584;2023-05-29T23:05:39;4.18;;;1.67;;
14001;SDS011;7076;51.280;12.584;2023-05-29T23:10:41;3.92;;;1.58;;
14001;SDS011;7076;51.280;12.584;2023-05-29T23:15:44;2.72;;;1.63;;
14001;SDS011;7076;51.280;12.584;2023-05-29T23:20:49;2.78;;;1.50;;
14001;SDS011;7076;51.280;12.584;2023-05-29T23:25:52;4.50;;;1.33;;
14001;SDS011;7076;51.280;12.584;2023-05-29T23:30:55;4.18;;;1.55;;
14001;SDS011;7076;51.280;12.584;2023-05-29T23:36:00;3.13;;;1.38;;
14001;SDS011;7076;51.280;12.584;2023-05-29T23:41:04;4.68;;;1.40;;
14001;SDS011;7076;51.280;12.584;2023-05-29T23:46:07;5.10;;;1.45;;
14001;SDS011;7076;51.280;12.584;2023-05-29T23:51:11;5.80;;;1.80;;
14001;SDS011;7076;51.280;12.584;2023-05-29T23:56:14;4.97;;;1.75;;
